Check out our new PWSWeather beta!
PWSweather.com
Personal Weather Stations
Station Observations
GRD01
Warsaw, LesznoPL 05-084

WarsawLesznoPL 05-084

Lat: 52.257404, Lon: 20.564847

Elevation: 298

Station Type: WH3080

http://pogoda.kampinos.waw.pl

High Low Average
Temperature 89.1°F31.7°C 66.7°F19.3°C 78.0°F25.6°C
Dew Point 59.0°F15.0°C 53.9°F12.2°C 56.0°F13.3°C
Winds 12.1 mph 19.5 kmh 0.7 mph 1.1 kmh 5.0 mph E8.0 kmh E
Wind Gusts 18.3 mph29.5 kmh 4.5 mph7.2 kmh 10.0 mph16.1 kmh
Humidity 64% 32% 48%
Pressure 30.66 in1038.3 mb 30.58 in1035.6 mb -
Precipitation 0.00 in0.0 mm - -
Hour Temp Dew Point Humidity Winds Wind Gusts Pressure Precip Precip Rate Daily Precip Total
12:00 AM 71.8°F22.1°C 56.7°F13.7°C 59% 3.8 mph ENE6.1 kmh ENE 7.6 mph12.2 kmh 30.64 in1037.6 mb 0.00 in0.0 mm 0.00 in0.0 mm 0.00 in0.0 mm
12:05 AM 71.8°F22.1°C 56.2°F13.4°C 58% 3.1 mph E5.0 kmh E 3.8 mph6.1 kmh 30.19 in1022.4 mb 0.00 in0.0 mm 0.00 in0.0 mm 0.00 in0.0 mm
12:15 AM 71.4°F21.9°C 56.3°F13.5°C 59% 0.7 mph NE1.1 kmh NE 6.0 mph9.7 kmh 30.63 in1037.3 mb 0.00 in0.0 mm 0.00 in0.0 mm 0.00 in0.0 mm
12:30 AM 71.2°F21.8°C 56.2°F13.4°C 59% 3.1 mph E5.0 kmh E 7.6 mph12.2 kmh 30.63 in1037.3 mb 0.00 in0.0 mm 0.00 in0.0 mm 0.00 in0.0 mm
12:35 AM 71.2°F21.8°C 56.6°F13.7°C 60% 3.8 mph E6.1 kmh E 6.0 mph9.7 kmh 30.19 in1022.4 mb 0.00 in0.0 mm 0.00 in0.0 mm 0.00 in0.0 mm
12:45 AM 71.1°F21.7°C 56.5°F13.6°C 60% 3.1 mph ESE5.0 kmh ESE 7.6 mph12.2 kmh 30.62 in1036.9 mb 0.00 in0.0 mm 0.00 in0.0 mm 0.00 in0.0 mm
01:00 AM 70.9°F21.6°C 56.3°F13.5°C 60% 4.5 mph NE7.2 kmh NE 8.3 mph13.4 kmh 30.63 in1037.3 mb 0.00 in0.0 mm 0.00 in0.0 mm 0.00 in0.0 mm
01:05 AM 70.9°F21.6°C 56.3°F13.5°C 60% 4.5 mph NE7.2 kmh NE 6.9 mph11.1 kmh 30.18 in1022.0 mb 0.00 in0.0 mm 0.00 in0.0 mm 0.00 in0.0 mm
01:15 AM 70.7°F21.5°C 56.1°F13.4°C 60% 6.9 mph ESE11.1 kmh ESE 8.3 mph13.4 kmh 30.62 in1036.9 mb 0.00 in0.0 mm 0.00 in0.0 mm 0.00 in0.0 mm
01:30 AM 70.5°F21.4°C 56.0°F13.3°C 60% 3.8 mph ESE6.1 kmh ESE 8.3 mph13.4 kmh 30.63 in1037.3 mb 0.00 in0.0 mm 0.00 in0.0 mm 0.00 in0.0 mm
01:35 AM 70.5°F21.4°C 56.0°F13.3°C 60% 3.8 mph SE6.1 kmh SE 4.5 mph7.2 kmh 30.18 in1022.0 mb 0.00 in0.0 mm 0.00 in0.0 mm 0.00 in0.0 mm
01:45 AM 70.5°F21.4°C 56.0°F13.3°C 60% 4.5 mph E7.2 kmh E 6.9 mph11.1 kmh 30.62 in1036.9 mb 0.00 in0.0 mm 0.00 in0.0 mm 0.00 in0.0 mm
02:00 AM 70.2°F21.2°C 55.6°F13.1°C 60% 3.1 mph E5.0 kmh E 6.0 mph9.7 kmh 30.63 in1037.3 mb 0.00 in0.0 mm 0.00 in0.0 mm 0.00 in0.0 mm
02:05 AM 70.2°F21.2°C 55.6°F13.1°C 60% 3.8 mph SE6.1 kmh SE 6.0 mph9.7 kmh 30.18 in1022.0 mb 0.00 in0.0 mm 0.00 in0.0 mm 0.00 in0.0 mm
02:15 AM 69.8°F21.0°C 55.3°F12.9°C 60% 2.2 mph ENE3.5 kmh ENE 6.0 mph9.7 kmh 30.63 in1037.3 mb 0.00 in0.0 mm 0.00 in0.0 mm 0.00 in0.0 mm
02:30 AM 69.6°F20.9°C 55.1°F12.8°C 60% 3.1 mph E5.0 kmh E 6.0 mph9.7 kmh 30.63 in1037.3 mb 0.00 in0.0 mm 0.00 in0.0 mm 0.00 in0.0 mm
02:35 AM 69.6°F20.9°C 55.1°F12.8°C 60% 1.6 mph NE2.6 kmh NE 3.1 mph5.0 kmh 30.18 in1022.0 mb 0.00 in0.0 mm 0.00 in0.0 mm 0.00 in0.0 mm
02:45 AM 69.3°F20.7°C 54.8°F12.7°C 60% 2.2 mph E3.5 kmh E 5.4 mph8.7 kmh 30.62 in1036.9 mb 0.00 in0.0 mm 0.00 in0.0 mm 0.00 in0.0 mm
03:00 AM 69.1°F20.6°C 54.6°F12.6°C 60% 3.8 mph E6.1 kmh E 7.6 mph12.2 kmh 30.63 in1037.3 mb 0.00 in0.0 mm 0.00 in0.0 mm 0.00 in0.0 mm
03:05 AM 69.1°F20.6°C 54.6°F12.6°C 60% 4.5 mph E7.2 kmh E 6.9 mph11.1 kmh 30.18 in1022.0 mb 0.00 in0.0 mm 0.00 in0.0 mm 0.00 in0.0 mm
03:15 AM 68.9°F20.5°C 54.9°F12.7°C 61% 3.8 mph ENE6.1 kmh ENE 6.0 mph9.7 kmh 30.63 in1037.3 mb 0.00 in0.0 mm 0.00 in0.0 mm 0.00 in0.0 mm
03:30 AM 68.7°F20.4°C 54.7°F12.6°C 61% 3.8 mph ENE6.1 kmh ENE 6.0 mph9.7 kmh 30.63 in1037.3 mb 0.00 in0.0 mm 0.00 in0.0 mm 0.00 in0.0 mm
03:35 AM 68.7°F20.4°C 54.7°F12.6°C 61% 5.4 mph E8.7 kmh E 6.0 mph9.7 kmh 30.18 in1022.0 mb 0.00 in0.0 mm 0.00 in0.0 mm 0.00 in0.0 mm
03:45 AM 68.7°F20.4°C 54.7°F12.6°C 61% 3.1 mph ENE5.0 kmh ENE 7.6 mph12.2 kmh 30.63 in1037.3 mb 0.00 in0.0 mm 0.00 in0.0 mm 0.00 in0.0 mm
04:00 AM 68.5°F20.3°C 54.6°F12.6°C 61% 3.8 mph NE6.1 kmh NE 6.0 mph9.7 kmh 30.63 in1037.3 mb 0.00 in0.0 mm 0.00 in0.0 mm 0.00 in0.0 mm
04:05 AM 68.5°F20.3°C 54.6°F12.6°C 61% 1.6 mph NE2.6 kmh NE 3.1 mph5.0 kmh 30.18 in1022.0 mb 0.00 in0.0 mm 0.00 in0.0 mm 0.00 in0.0 mm
04:15 AM 68.0°F20.0°C 54.0°F12.2°C 61% 2.2 mph NE3.5 kmh NE 6.0 mph9.7 kmh 30.63 in1037.3 mb 0.00 in0.0 mm 0.00 in0.0 mm 0.00 in0.0 mm
04:30 AM 67.6°F19.8°C 54.2°F12.3°C 62% 2.2 mph E3.5 kmh E 6.0 mph9.7 kmh 30.63 in1037.3 mb 0.00 in0.0 mm 0.00 in0.0 mm 0.00 in0.0 mm
04:35 AM 67.6°F19.8°C 54.2°F12.3°C 62% 2.2 mph NE3.5 kmh NE 3.8 mph6.1 kmh 30.19 in1022.4 mb 0.00 in0.0 mm 0.00 in0.0 mm 0.00 in0.0 mm
04:45 AM 67.1°F19.5°C 54.1°F12.3°C 63% 2.2 mph NE3.5 kmh NE 4.5 mph7.2 kmh 30.64 in1037.6 mb 0.00 in0.0 mm 0.00 in0.0 mm 0.00 in0.0 mm
05:00 AM 66.9°F19.4°C 53.9°F12.2°C 63% 3.1 mph ENE5.0 kmh ENE 6.9 mph11.1 kmh 30.63 in1037.3 mb 0.00 in0.0 mm 0.00 in0.0 mm 0.00 in0.0 mm
05:05 AM 66.9°F19.4°C 53.9°F12.2°C 63% 3.8 mph NE6.1 kmh NE 5.4 mph8.7 kmh 30.20 in1022.7 mb 0.00 in0.0 mm 0.00 in0.0 mm 0.00 in0.0 mm
05:15 AM 66.7°F19.3°C 54.2°F12.3°C 64% 3.1 mph ENE5.0 kmh ENE 6.0 mph9.7 kmh 30.64 in1037.6 mb 0.00 in0.0 mm 0.00 in0.0 mm 0.00 in0.0 mm
05:30 AM 67.1°F19.5°C 54.5°F12.5°C 64% 2.2 mph ENE3.5 kmh ENE 6.9 mph11.1 kmh 30.64 in1037.6 mb 0.00 in0.0 mm 0.00 in0.0 mm 0.00 in0.0 mm
05:35 AM 67.1°F19.5°C 54.5°F12.5°C 64% 3.8 mph E6.1 kmh E 4.5 mph7.2 kmh 30.20 in1022.7 mb 0.00 in0.0 mm 0.00 in0.0 mm 0.00 in0.0 mm
05:45 AM 67.5°F19.7°C 54.9°F12.7°C 64% 3.8 mph ENE6.1 kmh ENE 8.3 mph13.4 kmh 30.64 in1037.6 mb 0.00 in0.0 mm 0.00 in0.0 mm 0.00 in0.0 mm
06:00 AM 67.8°F19.9°C 54.8°F12.7°C 63% 2.2 mph E3.5 kmh E 7.6 mph12.2 kmh 30.64 in1037.6 mb 0.00 in0.0 mm 0.00 in0.0 mm 0.00 in0.0 mm
06:05 AM 67.8°F19.9°C 54.8°F12.7°C 63% 6.0 mph SE9.7 kmh SE 7.6 mph12.2 kmh 30.20 in1022.7 mb 0.00 in0.0 mm 0.00 in0.0 mm 0.00 in0.0 mm
06:15 AM 68.4°F20.2°C 55.3°F12.9°C 63% 4.5 mph NE7.2 kmh NE 6.0 mph9.7 kmh 30.64 in1037.6 mb 0.00 in0.0 mm 0.00 in0.0 mm 0.00 in0.0 mm
06:30 AM 68.9°F20.5°C 55.8°F13.2°C 63% 7.6 mph ENE12.2 kmh ENE 9.8 mph15.8 kmh 30.64 in1037.6 mb 0.00 in0.0 mm 0.00 in0.0 mm 0.00 in0.0 mm
06:35 AM 68.7°F20.4°C 55.6°F13.1°C 63% 3.8 mph NE6.1 kmh NE 5.4 mph8.7 kmh 30.20 in1022.7 mb 0.00 in0.0 mm 0.00 in0.0 mm 0.00 in0.0 mm
06:45 AM 69.6°F20.9°C 56.5°F13.6°C 63% 6.0 mph ENE9.7 kmh ENE 8.3 mph13.4 kmh 30.65 in1037.9 mb 0.00 in0.0 mm 0.00 in0.0 mm 0.00 in0.0 mm
07:00 AM 70.2°F21.2°C 56.5°F13.6°C 62% 3.1 mph E5.0 kmh E 8.3 mph13.4 kmh 30.65 in1037.9 mb 0.00 in0.0 mm 0.00 in0.0 mm 0.00 in0.0 mm
07:05 AM 70.2°F21.2°C 56.5°F13.6°C 62% 3.1 mph E5.0 kmh E 3.8 mph6.1 kmh 30.21 in1023.0 mb 0.00 in0.0 mm 0.00 in0.0 mm 0.00 in0.0 mm
07:15 AM 71.8°F22.1°C 57.1°F13.9°C 60% 6.9 mph E11.1 kmh E 10.7 mph17.2 kmh 30.66 in1038.3 mb 0.00 in0.0 mm 0.00 in0.0 mm 0.00 in0.0 mm
07:30 AM 72.7°F22.6°C 56.1°F13.4°C 56% 3.8 mph E6.1 kmh E 13.6 mph21.9 kmh 30.65 in1037.9 mb 0.00 in0.0 mm 0.00 in0.0 mm 0.00 in0.0 mm
07:35 AM 72.7°F22.6°C 56.1°F13.4°C 56% 4.5 mph E7.2 kmh E 6.0 mph9.7 kmh 30.21 in1023.0 mb 0.00 in0.0 mm 0.00 in0.0 mm 0.00 in0.0 mm
07:45 AM 73.6°F23.1°C 55.9°F13.3°C 54% 2.2 mph ESE3.5 kmh ESE 11.4 mph18.3 kmh 30.65 in1037.9 mb 0.00 in0.0 mm 0.00 in0.0 mm 0.00 in0.0 mm
08:00 AM 74.7°F23.7°C 56.9°F13.8°C 54% 4.5 mph E7.2 kmh E 8.3 mph13.4 kmh 30.65 in1037.9 mb 0.00 in0.0 mm 0.00 in0.0 mm 0.00 in0.0 mm
08:05 AM 74.5°F23.6°C 56.7°F13.7°C 54% 7.6 mph SE12.2 kmh SE 8.3 mph13.4 kmh 30.21 in1023.0 mb 0.00 in0.0 mm 0.00 in0.0 mm 0.00 in0.0 mm
08:15 AM 75.6°F24.2°C 56.7°F13.7°C 52% 6.0 mph ESE9.7 kmh ESE 10.7 mph17.2 kmh 30.66 in1038.3 mb 0.00 in0.0 mm 0.00 in0.0 mm 0.00 in0.0 mm
08:30 AM 76.5°F24.7°C 57.0°F13.9°C 51% 8.3 mph ESE13.4 kmh ESE 13.0 mph20.9 kmh 30.66 in1038.3 mb 0.00 in0.0 mm 0.00 in0.0 mm 0.00 in0.0 mm
08:35 AM 76.3°F24.6°C 56.8°F13.8°C 51% 6.9 mph E11.1 kmh E 8.3 mph13.4 kmh 30.21 in1023.0 mb 0.00 in0.0 mm 0.00 in0.0 mm 0.00 in0.0 mm
08:45 AM 77.9°F25.5°C 57.8°F14.3°C 50% 6.0 mph E9.7 kmh E 13.0 mph20.9 kmh 30.66 in1038.3 mb 0.00 in0.0 mm 0.00 in0.0 mm 0.00 in0.0 mm
09:00 AM 79.0°F26.1°C 57.6°F14.2°C 48% 10.7 mph ENE17.2 kmh ENE 12.1 mph19.5 kmh 30.65 in1037.9 mb 0.00 in0.0 mm 0.00 in0.0 mm 0.00 in0.0 mm
09:05 AM 78.8°F26.0°C 56.9°F13.8°C 47% 6.0 mph E9.7 kmh E 8.3 mph13.4 kmh 30.21 in1023.0 mb 0.00 in0.0 mm 0.00 in0.0 mm 0.00 in0.0 mm
09:15 AM 80.1°F26.7°C 56.8°F13.8°C 45% 7.6 mph E12.2 kmh E 14.5 mph23.3 kmh 30.66 in1038.3 mb 0.00 in0.0 mm 0.00 in0.0 mm 0.00 in0.0 mm
09:30 AM 81.1°F27.3°C 57.2°F14.0°C 44% 4.5 mph E7.2 kmh E 14.5 mph23.3 kmh 30.65 in1037.9 mb 0.00 in0.0 mm 0.00 in0.0 mm 0.00 in0.0 mm
09:35 AM 81.0°F27.2°C 57.0°F13.9°C 44% 4.5 mph E7.2 kmh E 7.6 mph12.2 kmh 30.21 in1023.0 mb 0.00 in0.0 mm 0.00 in0.0 mm 0.00 in0.0 mm
09:45 AM 82.8°F28.2°C 56.0°F13.3°C 40% 6.9 mph E11.1 kmh E 11.4 mph18.3 kmh 30.64 in1037.6 mb 0.00 in0.0 mm 0.00 in0.0 mm 0.00 in0.0 mm
10:00 AM 82.8°F28.2°C 54.6°F12.6°C 38% 6.9 mph E11.1 kmh E 16.8 mph27.0 kmh 30.65 in1037.9 mb 0.00 in0.0 mm 0.00 in0.0 mm 0.00 in0.0 mm
10:05 AM 82.8°F28.2°C 54.6°F12.6°C 38% 11.4 mph SE18.3 kmh SE 16.8 mph27.0 kmh 30.21 in1023.0 mb 0.00 in0.0 mm 0.00 in0.0 mm 0.00 in0.0 mm
10:15 AM 83.1°F28.4°C 54.9°F12.7°C 38% 3.8 mph ESE6.1 kmh ESE 15.9 mph25.6 kmh 30.65 in1037.9 mb 0.00 in0.0 mm 0.00 in0.0 mm 0.00 in0.0 mm
10:30 AM 83.7°F28.7°C 54.6°F12.6°C 37% 3.1 mph ESE5.0 kmh ESE 13.6 mph21.9 kmh 30.65 in1037.9 mb 0.00 in0.0 mm 0.00 in0.0 mm 0.00 in0.0 mm
10:35 AM 83.7°F28.7°C 53.9°F12.2°C 36% 6.9 mph E11.1 kmh E 9.2 mph14.8 kmh 30.20 in1022.7 mb 0.00 in0.0 mm 0.00 in0.0 mm 0.00 in0.0 mm
10:45 AM 84.4°F29.1°C 54.5°F12.5°C 36% 9.8 mph E15.8 kmh E 13.6 mph21.9 kmh 30.64 in1037.6 mb 0.00 in0.0 mm 0.00 in0.0 mm 0.00 in0.0 mm
11:00 AM 85.1°F29.5°C 55.1°F12.8°C 36% 5.4 mph E8.7 kmh E 13.6 mph21.9 kmh 30.64 in1037.6 mb 0.00 in0.0 mm 0.00 in0.0 mm 0.00 in0.0 mm
11:05 AM 84.9°F29.4°C 55.0°F12.8°C 36% 6.0 mph N9.7 kmh N 9.2 mph14.8 kmh 30.20 in1022.7 mb 0.00 in0.0 mm 0.00 in0.0 mm 0.00 in0.0 mm
11:15 AM 85.3°F29.6°C 54.5°F12.5°C 35% 9.8 mph SE15.8 kmh SE 14.5 mph23.3 kmh 30.64 in1037.6 mb 0.00 in0.0 mm 0.00 in0.0 mm 0.00 in0.0 mm
11:30 AM 85.6°F29.8°C 56.4°F13.6°C 37% 5.4 mph ESE8.7 kmh ESE 14.5 mph23.3 kmh 30.64 in1037.6 mb 0.00 in0.0 mm 0.00 in0.0 mm 0.00 in0.0 mm
11:35 AM 85.6°F29.8°C 56.4°F13.6°C 37% 3.8 mph SE6.1 kmh SE 6.9 mph11.1 kmh 30.20 in1022.7 mb 0.00 in0.0 mm 0.00 in0.0 mm 0.00 in0.0 mm
11:45 AM 86.0°F30.0°C 55.9°F13.3°C 36% 12.1 mph E19.5 kmh E 18.3 mph29.5 kmh 30.64 in1037.6 mb 0.00 in0.0 mm 0.00 in0.0 mm 0.00 in0.0 mm
12:00 PM 86.2°F30.1°C 56.1°F13.4°C 36% 6.9 mph SE11.1 kmh SE 11.4 mph18.3 kmh 30.64 in1037.6 mb 0.00 in0.0 mm 0.00 in0.0 mm 0.00 in0.0 mm
12:05 PM 86.2°F30.1°C 56.1°F13.4°C 36% 6.9 mph E11.1 kmh E 9.2 mph14.8 kmh 30.20 in1022.7 mb 0.00 in0.0 mm 0.00 in0.0 mm 0.00 in0.0 mm
12:15 PM 86.5°F30.3°C 57.2°F14.0°C 37% 6.9 mph SE11.1 kmh SE 14.5 mph23.3 kmh 30.64 in1037.6 mb 0.00 in0.0 mm 0.00 in0.0 mm 0.00 in0.0 mm
12:30 PM 86.5°F30.3°C 57.2°F14.0°C 37% 6.9 mph ESE11.1 kmh ESE 14.5 mph23.3 kmh 30.63 in1037.3 mb 0.00 in0.0 mm 0.00 in0.0 mm 0.00 in0.0 mm
12:35 PM 86.5°F30.3°C 57.2°F14.0°C 37% 8.3 mph NE13.4 kmh NE 9.8 mph15.8 kmh 30.19 in1022.4 mb 0.00 in0.0 mm 0.00 in0.0 mm 0.00 in0.0 mm
12:45 PM 87.3°F30.7°C 57.8°F14.3°C 37% 6.0 mph SE9.7 kmh SE 12.1 mph19.5 kmh 30.62 in1036.9 mb 0.00 in0.0 mm 0.00 in0.0 mm 0.00 in0.0 mm
01:00 PM 87.4°F30.8°C 58.7°F14.8°C 38% 4.5 mph E7.2 kmh E 11.4 mph18.3 kmh 30.63 in1037.3 mb 0.00 in0.0 mm 0.00 in0.0 mm 0.00 in0.0 mm
01:05 PM 87.4°F30.8°C 58.7°F14.8°C 38% 4.5 mph E7.2 kmh E 6.0 mph9.7 kmh 30.19 in1022.4 mb 0.00 in0.0 mm 0.00 in0.0 mm 0.00 in0.0 mm
01:15 PM 87.8°F31.0°C 59.0°F15.0°C 38% 10.7 mph SE17.2 kmh SE 14.5 mph23.3 kmh 30.62 in1036.9 mb 0.00 in0.0 mm 0.00 in0.0 mm 0.00 in0.0 mm
01:30 PM 88.0°F31.1°C 58.4°F14.7°C 37% 8.3 mph SE13.4 kmh SE 13.6 mph21.9 kmh 30.61 in1036.6 mb 0.00 in0.0 mm 0.00 in0.0 mm 0.00 in0.0 mm
01:35 PM 88.0°F31.1°C 58.4°F14.7°C 37% 6.9 mph SE11.1 kmh SE 8.3 mph13.4 kmh 30.18 in1022.0 mb 0.00 in0.0 mm 0.00 in0.0 mm 0.00 in0.0 mm
01:45 PM 87.8°F31.0°C 58.3°F14.6°C 37% 7.6 mph E12.2 kmh E 15.2 mph24.5 kmh 30.62 in1036.9 mb 0.00 in0.0 mm 0.00 in0.0 mm 0.00 in0.0 mm
02:00 PM 88.2°F31.2°C 57.8°F14.3°C 36% 7.6 mph ESE12.2 kmh ESE 13.6 mph21.9 kmh 30.61 in1036.6 mb 0.00 in0.0 mm 0.00 in0.0 mm 0.00 in0.0 mm
02:05 PM 88.0°F31.1°C 57.7°F14.3°C 36% 6.9 mph E11.1 kmh E 9.2 mph14.8 kmh 30.17 in1021.7 mb 0.00 in0.0 mm 0.00 in0.0 mm 0.00 in0.0 mm
02:15 PM 88.5°F31.4°C 57.4°F14.1°C 35% 6.9 mph ESE11.1 kmh ESE 13.6 mph21.9 kmh 30.60 in1036.2 mb 0.00 in0.0 mm 0.00 in0.0 mm 0.00 in0.0 mm
02:30 PM 88.5°F31.4°C 56.6°F13.7°C 34% 3.8 mph SE6.1 kmh SE 14.5 mph23.3 kmh 30.60 in1036.2 mb 0.00 in0.0 mm 0.00 in0.0 mm 0.00 in0.0 mm
02:35 PM 88.3°F31.3°C 56.4°F13.6°C 34% 6.9 mph SE11.1 kmh SE 8.3 mph13.4 kmh 30.16 in1021.3 mb 0.00 in0.0 mm 0.00 in0.0 mm 0.00 in0.0 mm
02:45 PM 89.1°F31.7°C 57.0°F13.9°C 34% 9.2 mph SE14.8 kmh SE 12.1 mph19.5 kmh 30.60 in1036.2 mb 0.00 in0.0 mm 0.00 in0.0 mm 0.00 in0.0 mm
03:00 PM 88.9°F31.6°C 56.1°F13.4°C 33% 5.4 mph SE8.7 kmh SE 14.5 mph23.3 kmh 30.60 in1036.2 mb 0.00 in0.0 mm 0.00 in0.0 mm 0.00 in0.0 mm
03:05 PM 89.1°F31.7°C 56.2°F13.4°C 33% 7.6 mph E12.2 kmh E 9.2 mph14.8 kmh 30.15 in1021.0 mb 0.00 in0.0 mm 0.00 in0.0 mm 0.00 in0.0 mm
03:15 PM 88.7°F31.5°C 55.9°F13.3°C 33% 6.9 mph E11.1 kmh E 11.4 mph18.3 kmh 30.59 in1035.9 mb 0.00 in0.0 mm 0.00 in0.0 mm 0.00 in0.0 mm
03:30 PM 88.9°F31.6°C 56.1°F13.4°C 33% 6.0 mph ESE9.7 kmh ESE 9.8 mph15.8 kmh 30.59 in1035.9 mb 0.00 in0.0 mm 0.00 in0.0 mm 0.00 in0.0 mm
03:35 PM 88.9°F31.6°C 56.1°F13.4°C 33% 6.9 mph E11.1 kmh E 8.3 mph13.4 kmh 30.15 in1021.0 mb 0.00 in0.0 mm 0.00 in0.0 mm 0.00 in0.0 mm
03:45 PM 88.9°F31.6°C 56.1°F13.4°C 33% 5.4 mph ESE8.7 kmh ESE 13.6 mph21.9 kmh 30.59 in1035.9 mb 0.00 in0.0 mm 0.00 in0.0 mm 0.00 in0.0 mm
04:00 PM 88.9°F31.6°C 55.2°F12.9°C 32% 5.4 mph SSE8.7 kmh SSE 12.1 mph19.5 kmh 30.59 in1035.9 mb 0.00 in0.0 mm 0.00 in0.0 mm 0.00 in0.0 mm
04:05 PM 88.9°F31.6°C 55.2°F12.9°C 32% 3.8 mph S6.1 kmh S 5.4 mph8.7 kmh 30.14 in1020.7 mb 0.00 in0.0 mm 0.00 in0.0 mm 0.00 in0.0 mm
04:15 PM 88.9°F31.6°C 55.2°F12.9°C 32% 5.4 mph SE8.7 kmh SE 12.1 mph19.5 kmh 30.59 in1035.9 mb 0.00 in0.0 mm 0.00 in0.0 mm 0.00 in0.0 mm
04:30 PM 88.5°F31.4°C 54.9°F12.7°C 32% 5.4 mph SE8.7 kmh SE 9.2 mph14.8 kmh 30.59 in1035.9 mb 0.00 in0.0 mm 0.00 in0.0 mm 0.00 in0.0 mm
04:35 PM 88.5°F31.4°C 54.9°F12.7°C 32% 3.8 mph S6.1 kmh S 4.5 mph7.2 kmh 30.14 in1020.7 mb 0.00 in0.0 mm 0.00 in0.0 mm 0.00 in0.0 mm
04:45 PM 88.2°F31.2°C 54.6°F12.6°C 32% 3.8 mph SSE6.1 kmh SSE 13.0 mph20.9 kmh 30.59 in1035.9 mb 0.00 in0.0 mm 0.00 in0.0 mm 0.00 in0.0 mm
05:00 PM 87.4°F30.8°C 54.8°F12.7°C 33% 7.6 mph SE12.2 kmh SE 9.8 mph15.8 kmh 30.58 in1035.6 mb 0.00 in0.0 mm 0.00 in0.0 mm 0.00 in0.0 mm
05:05 PM 87.6°F30.9°C 55.0°F12.8°C 33% 3.1 mph SE5.0 kmh SE 5.4 mph8.7 kmh 30.13 in1020.3 mb 0.00 in0.0 mm 0.00 in0.0 mm 0.00 in0.0 mm
05:15 PM 86.7°F30.4°C 55.0°F12.8°C 34% 3.8 mph SE6.1 kmh SE 9.8 mph15.8 kmh 30.58 in1035.6 mb 0.00 in0.0 mm 0.00 in0.0 mm 0.00 in0.0 mm
05:30 PM 86.0°F30.0°C 55.2°F12.9°C 35% 3.8 mph ESE6.1 kmh ESE 10.7 mph17.2 kmh 30.58 in1035.6 mb 0.00 in0.0 mm 0.00 in0.0 mm 0.00 in0.0 mm
05:35 PM 86.2°F30.1°C 55.3°F12.9°C 35% 4.5 mph SE7.2 kmh SE 6.0 mph9.7 kmh 30.13 in1020.3 mb 0.00 in0.0 mm 0.00 in0.0 mm 0.00 in0.0 mm
05:45 PM 85.3°F29.6°C 56.1°F13.4°C 37% 2.2 mph ESE3.5 kmh ESE 7.6 mph12.2 kmh 30.58 in1035.6 mb 0.00 in0.0 mm 0.00 in0.0 mm 0.00 in0.0 mm
06:00 PM 84.0°F28.9°C 55.7°F13.2°C 38% 3.8 mph ESE6.1 kmh ESE 4.5 mph7.2 kmh 30.59 in1035.9 mb 0.00 in0.0 mm 0.00 in0.0 mm 0.00 in0.0 mm
06:05 PM 84.4°F29.1°C 56.0°F13.3°C 38% 2.2 mph SE3.5 kmh SE 3.8 mph6.1 kmh 30.14 in1020.7 mb 0.00 in0.0 mm 0.00 in0.0 mm 0.00 in0.0 mm
06:15 PM 82.9°F28.3°C 56.1°F13.4°C 40% 2.2 mph ENE3.5 kmh ENE 4.5 mph7.2 kmh 30.59 in1035.9 mb 0.00 in0.0 mm 0.00 in0.0 mm 0.00 in0.0 mm
06:30 PM 81.9°F27.7°C 55.2°F12.9°C 40% 1.6 mph NE2.6 kmh NE 4.5 mph7.2 kmh 30.59 in1035.9 mb 0.00 in0.0 mm 0.00 in0.0 mm 0.00 in0.0 mm
06:35 PM 82.0°F27.8°C 55.3°F12.9°C 40% 1.6 mph NE2.6 kmh NE 2.2 mph3.5 kmh 30.14 in1020.7 mb 0.00 in0.0 mm 0.00 in0.0 mm 0.00 in0.0 mm
06:45 PM 81.0°F27.2°C 56.4°F13.6°C 43% 3.8 mph NE6.1 kmh NE 5.4 mph8.7 kmh 30.58 in1035.6 mb 0.00 in0.0 mm 0.00 in0.0 mm 0.00 in0.0 mm
07:00 PM 80.6°F27.0°C 56.7°F13.7°C 44% 3.1 mph E5.0 kmh E 4.5 mph7.2 kmh 30.59 in1035.9 mb 0.00 in0.0 mm 0.00 in0.0 mm 0.00 in0.0 mm
07:05 PM 80.6°F27.0°C 56.7°F13.7°C 44% 3.1 mph E5.0 kmh E 3.8 mph6.1 kmh 30.14 in1020.7 mb 0.00 in0.0 mm 0.00 in0.0 mm 0.00 in0.0 mm
07:15 PM 79.7°F26.5°C 55.9°F13.3°C 44% 3.1 mph NE5.0 kmh NE 5.4 mph8.7 kmh 30.59 in1035.9 mb 0.00 in0.0 mm 0.00 in0.0 mm 0.00 in0.0 mm
07:30 PM 79.3°F26.3°C 55.5°F13.1°C 44% 4.5 mph NE7.2 kmh NE 6.9 mph11.1 kmh 30.59 in1035.9 mb 0.00 in0.0 mm 0.00 in0.0 mm 0.00 in0.0 mm
07:35 PM 79.3°F26.3°C 55.5°F13.1°C 44% 1.6 mph NE2.6 kmh NE 3.1 mph5.0 kmh 30.14 in1020.7 mb 0.00 in0.0 mm 0.00 in0.0 mm 0.00 in0.0 mm
07:45 PM 79.0°F26.1°C 55.2°F12.9°C 44% 3.1 mph NE5.0 kmh NE 6.0 mph9.7 kmh 30.59 in1035.9 mb 0.00 in0.0 mm 0.00 in0.0 mm 0.00 in0.0 mm
08:00 PM 78.4°F25.8°C 55.3°F12.9°C 45% 5.4 mph NE8.7 kmh NE 8.3 mph13.4 kmh 30.59 in1035.9 mb 0.00 in0.0 mm 0.00 in0.0 mm 0.00 in0.0 mm
08:05 PM 78.4°F25.8°C 55.3°F12.9°C 45% 1.6 mph E2.6 kmh E 3.1 mph5.0 kmh 30.14 in1020.7 mb 0.00 in0.0 mm 0.00 in0.0 mm 0.00 in0.0 mm
08:15 PM 78.3°F25.7°C 55.8°F13.2°C 46% 5.4 mph E8.7 kmh E 8.3 mph13.4 kmh 30.59 in1035.9 mb 0.00 in0.0 mm 0.00 in0.0 mm 0.00 in0.0 mm
08:30 PM 77.9°F25.5°C 56.0°F13.3°C 47% 3.8 mph ENE6.1 kmh ENE 9.8 mph15.8 kmh 30.60 in1036.2 mb 0.00 in0.0 mm 0.00 in0.0 mm 0.00 in0.0 mm
08:35 PM 77.9°F25.5°C 56.0°F13.3°C 47% 3.1 mph NE5.0 kmh NE 3.8 mph6.1 kmh 30.15 in1021.0 mb 0.00 in0.0 mm 0.00 in0.0 mm 0.00 in0.0 mm
08:45 PM 77.4°F25.2°C 56.1°F13.4°C 48% 4.5 mph NE7.2 kmh NE 7.6 mph12.2 kmh 30.60 in1036.2 mb 0.00 in0.0 mm 0.00 in0.0 mm 0.00 in0.0 mm
09:00 PM 77.0°F25.0°C 56.4°F13.6°C 49% 5.4 mph E8.7 kmh E 9.2 mph14.8 kmh 30.60 in1036.2 mb 0.00 in0.0 mm 0.00 in0.0 mm 0.00 in0.0 mm
09:05 PM 77.0°F25.0°C 56.4°F13.6°C 49% 6.0 mph SE9.7 kmh SE 9.2 mph14.8 kmh 30.15 in1021.0 mb 0.00 in0.0 mm 0.00 in0.0 mm 0.00 in0.0 mm
09:15 PM 76.5°F24.7°C 56.4°F13.6°C 50% 3.8 mph E6.1 kmh E 8.3 mph13.4 kmh 30.60 in1036.2 mb 0.00 in0.0 mm 0.00 in0.0 mm 0.00 in0.0 mm
09:30 PM 75.9°F24.4°C 56.5°F13.6°C 51% 4.5 mph E7.2 kmh E 9.8 mph15.8 kmh 30.61 in1036.6 mb 0.00 in0.0 mm 0.00 in0.0 mm 0.00 in0.0 mm
09:35 PM 75.9°F24.4°C 56.5°F13.6°C 51% 6.9 mph NE11.1 kmh NE 9.8 mph15.8 kmh 30.16 in1021.3 mb 0.00 in0.0 mm 0.00 in0.0 mm 0.00 in0.0 mm
09:45 PM 75.2°F24.0°C 56.4°F13.6°C 52% 5.4 mph E8.7 kmh E 7.6 mph12.2 kmh 30.61 in1036.6 mb 0.00 in0.0 mm 0.00 in0.0 mm 0.00 in0.0 mm
10:00 PM 74.7°F23.7°C 56.4°F13.6°C 53% 3.1 mph E5.0 kmh E 7.6 mph12.2 kmh 30.61 in1036.6 mb 0.00 in0.0 mm 0.00 in0.0 mm 0.00 in0.0 mm
10:05 PM 74.8°F23.8°C 56.0°F13.3°C 52% 3.8 mph NE6.1 kmh NE 4.5 mph7.2 kmh 30.16 in1021.3 mb 0.00 in0.0 mm 0.00 in0.0 mm 0.00 in0.0 mm
10:15 PM 74.1°F23.4°C 55.9°F13.3°C 53% 4.5 mph E7.2 kmh E 6.9 mph11.1 kmh 30.61 in1036.6 mb 0.00 in0.0 mm 0.00 in0.0 mm 0.00 in0.0 mm
10:30 PM 73.6°F23.1°C 56.4°F13.6°C 55% 4.5 mph ESE7.2 kmh ESE 7.6 mph12.2 kmh 30.62 in1036.9 mb 0.00 in0.0 mm 0.00 in0.0 mm 0.00 in0.0 mm
10:35 PM 73.6°F23.1°C 55.9°F13.3°C 54% 6.0 mph E9.7 kmh E 7.6 mph12.2 kmh 30.16 in1021.3 mb 0.00 in0.0 mm 0.00 in0.0 mm 0.00 in0.0 mm
10:45 PM 73.4°F23.0°C 56.2°F13.4°C 55% 5.4 mph ESE8.7 kmh ESE 8.3 mph13.4 kmh 30.61 in1036.6 mb 0.00 in0.0 mm 0.00 in0.0 mm 0.00 in0.0 mm
11:00 PM 73.2°F22.9°C 56.6°F13.7°C 56% 6.0 mph ESE9.7 kmh ESE 10.7 mph17.2 kmh 30.61 in1036.6 mb 0.00 in0.0 mm 0.00 in0.0 mm 0.00 in0.0 mm
11:05 PM 73.2°F22.9°C 56.6°F13.7°C 56% 4.5 mph SE7.2 kmh SE 6.9 mph11.1 kmh 30.17 in1021.7 mb 0.00 in0.0 mm 0.00 in0.0 mm 0.00 in0.0 mm
11:15 PM 72.9°F22.7°C 56.2°F13.4°C 56% 3.8 mph ESE6.1 kmh ESE 11.4 mph18.3 kmh 30.61 in1036.6 mb 0.00 in0.0 mm 0.00 in0.0 mm 0.00 in0.0 mm
11:30 PM 72.7°F22.6°C 56.6°F13.7°C 57% 4.5 mph SE7.2 kmh SE 9.2 mph14.8 kmh 30.62 in1036.9 mb 0.00 in0.0 mm 0.00 in0.0 mm 0.00 in0.0 mm
11:35 PM 72.7°F22.6°C 56.6°F13.7°C 57% 6.0 mph E9.7 kmh E 8.3 mph13.4 kmh 30.16 in1021.3 mb 0.00 in0.0 mm 0.00 in0.0 mm 0.00 in0.0 mm
11:45 PM 72.3°F22.4°C 58.1°F14.5°C 61% 6.0 mph ESE9.7 kmh ESE 9.8 mph15.8 kmh 30.61 in1036.6 mb 0.00 in0.0 mm 0.00 in0.0 mm 0.00 in0.0 mm